Latest Coastal Weather Observations for Williamtown

IDN60701

Issued at 5:01 pm EDT Sunday 11 December 2016 (issued every 10 minutes, with the page automatically refreshed every 10 minutes)

About coastal observations | Map of coastal stations | Coastal observations for NSW | Marine services | Other Formats
Station Details ID: 061078 Name: WILLIAMTOWN RAAF Lat: -32.79 Lon: 151.84 Height: 7.5 m
Data from the previous 72 hours. | See also: Recent months at Williamtown
Date/Time
EDT
Temp
°C
Wind Pressure Rain since
9am
mm
Weather Cloud Vis
km
Sea
Height
m
Swell
Dir  Spd
kts
Gust
kts
hPa Trend Height
m
Period
s
Dir
11/04:30pm 26.8 ENE 15 20 1018.0 - 0.0 - - 10 - - - -
11/04:00pm 27.3 ENE 14 19 1018.2 - 0.0 - - 10 - - - -
11/03:30pm 27.7 ENE 12 18 1018.5 - 0.0 - - 10 - - - -
11/03:00pm 28.0 ENE 12 18 1018.9 F 0.0 - Mostly clear 10 - - - -
11/02:30pm 27.9 E 12 17 1019.0 - 0.0 - Partly cloudy 10 - - - -
11/02:00pm 27.2 ENE 8 12 1019.3 - 0.0 - Partly cloudy 10 - - - -
11/01:30pm 27.4 E 9 15 1019.4 - 0.0 - Partly cloudy 10 - - - -
11/01:00pm 26.8 N 4 9 1019.9 - 0.0 - Partly cloudy 10 - - - -
11/12:30pm 27.1 SW 5 9 1020.1 - 0.0 - Partly cloudy 10 - - - -
11/12:00pm 26.6 SSE 9 13 1020.4 F 0.0 - - 10 - - - -
11/11:30am 25.3 SSE 8 12 1020.9 - 0.0 - - 10 - - - -
11/11:00am 24.6 W 5 8 1021.2 - 0.0 - - 10 - - - -
11/10:30am 23.7 NW 6 9 1021.4 - 0.0 - - 10 - - - -
11/10:00am 22.9 NNW 6 10 1021.5 - 0.0 - - 10 - - - -
11/09:30am 22.2 NW 6 8 1021.6 - 0.0 - - 10 - - - -
11/09:00am 21.1 NW 4 8 1021.7 R 0.0 - - 10 - - - -
11/08:30am 20.3 NNW 7 9 1021.7 - 0.0 - - 10 - - - -
11/08:00am 19.8 NNW 7 8 1021.5 - 0.0 - - 10 - - - -
11/07:30am 19.2 N 7 9 1021.1 - 0.0 - - 10 - - - -
11/07:00am 18.7 N 6 7 1020.8 - 0.0 - - 10 - - - -
11/06:30am 18.2 NNE 5 7 1020.5 - 0.0 - - 10 - - - -
11/06:00am 17.9 NE 5 8 1020.1 R 0.0 - - 10 - - - -
11/05:30am 17.6 NE 5 8 1019.6 - 0.0 - - 10 - - - -
11/05:00am 17.2 ENE 2 4 1019.4 - 0.0 - - 10 - - - -
11/04:30am 17.5 ENE 5 6 1019.1 - 0.0 - - 10 - - - -
11/04:00am 17.6 ENE 6 8 1018.9 - 0.0 - - 10 - - - -
11/03:30am 17.7 ENE 8 10 1018.8 - 0.0 - - 10 - - - -
11/03:00am 17.8 ENE 7 9 1018.9 F 0.0 - - 10 - - - -
11/02:30am 18.0 E 7 9 1019.1 - 0.0 - - 10 - - - -
11/02:00am 18.3 E 5 7 1019.5 - 0.0 - - 10 - - - -
11/01:30am 18.6 E 5 7 1019.7 - 0.0 - - 10 - - - -
11/01:00am 18.8 ENE 6 10 1019.8 - 0.0 - - 10 - - - -
11/12:30am 19.0 NE 6 10 1019.8 - 0.0 - - 10 - - - -
11/12:00am 19.2 NE 8 11 1020.0 F 0.0 - - 10 - - - -
 
Date/Time
EDT
Temp
°C
Wind Pressure Rain since
9am
mm
Weather Cloud Vis
km
Sea
Height
m
Swell
Dir  Spd
kts
Gust
kts
hPa Trend Height
m
Period
s
Dir
10/11:30pm 19.4 NE 8 14 1020.2 - 0.0 - - 10 - - - -
10/11:00pm 19.5 NE 9 14 1020.3 - 0.0 - - 10 - - - -
10/10:30pm 19.6 NE 9 14 1020.5 - 0.0 - - 10 - - - -
10/10:00pm 19.7 NE 9 16 1020.6 - 0.0 - - 10 - - - -
10/09:30pm 19.7 NE 9 16 1020.6 - 0.0 - - 10 - - - -
10/09:00pm 19.9 NE 9 15 1020.3 F 0.0 - - 10 - - - -
10/08:30pm 20.1 NE 11 17 1020.2 - 0.0 - - 10 - - - -
10/08:00pm 20.3 NE 10 17 1020.0 - 0.0 - - 10 - - - -
10/07:30pm 20.6 ENE 12 17 1019.8 - 0.0 - - 10 - - - -
10/07:00pm 21.1 ENE 15 22 1019.4 - 0.0 - - 10 - - - -
10/06:30pm 21.5 ENE 17 23 1019.3 - 0.0 - - 10 - - - -
10/06:00pm 22.4 NE 14 21 1019.2 F 0.0 - - 10 - - - -
10/05:30pm 22.6 ENE 15 19 1019.1 - 0.0 - - 10 - - - -
10/05:00pm 23.0 E 15 20 1019.1 - 0.0 - - 10 - - - -
10/04:30pm 22.8 E 14 19 1019.2 - 0.0 - - 10 - - - -
10/04:00pm 23.0 E 16 21 1019.5 - 0.0 - - 10 - - - -
10/03:30pm 23.1 ESE 16 21 1019.7 - 0.0 - - 10 - - - -
10/03:00pm 23.2 E 15 20 1020.1 S 0.0 - - 10 - - - -
10/02:30pm 23.1 E 14 20 1020.3 - 0.0 - - 10 - - - -
10/02:00pm 23.3 ESE 16 23 1020.5 - 0.0 - - 10 - - - -
10/01:30pm 23.1 ESE 16 20 1020.8 - 0.0 - - 10 - - - -
10/01:00pm 22.6 ESE 14 20 1021.1 - 0.0 - Partly cloudy 10 - - - -
10/12:30pm 22.9 SE 15 19 1021.3 - 0.0 - Partly cloudy 10 - - - -
10/12:00pm 23.1 SE 16 18 1021.5 F 0.0 - Cloudy 10 - - - -
10/11:30am 22.4 SE 15 19 1021.7 - 0.0 - Partly cloudy 10 - - - -
10/11:00am 21.5 SE 13 18 1022.0 - 0.0 - Partly cloudy 10 - - - -
10/10:30am 21.9 ESE 10 14 1022.2 - 0.0 - Cloudy 10 - - - -
10/10:00am 21.5 E 7 11 1022.2 - 0.0 - Partly cloudy 10 - - - -
10/09:30am 21.0 E 8 10 1022.3 - 0.0 - Partly cloudy 10 - - - -
10/09:00am 21.3 E 7 12 1022.3 R 0.0 - Cloudy 10 - - - -
10/08:30am 21.3 E 7 10 1022.2 - 0.0 - Partly cloudy 10 - - - -
10/08:00am 20.8 ENE 7 9 1022.1 - 0.0 - Partly cloudy 10 - - - -
10/07:30am 19.9 NE 5 6 1021.7 - 0.0 - Partly cloudy 10 - - - -
10/07:00am 18.9 NE 4 5 1021.2 - 0.0 - Partly cloudy 10 - - - -
10/06:30am 17.4 NNE 4 5 1020.7 - 0.0 - Partly cloudy 10 - - - -
10/06:00am 17.4 NE 4 4 1020.4 R 0.0 - Mostly cloudy 10 - - - -
10/05:30am 17.3 NNE 4 4 1020.0 - 0.0 - Cloudy 10 - - - -
10/05:00am 17.4 NNE 4 5 1019.7 - 0.0 - Cloudy 10 - - - -
10/04:30am 17.6 NE 3 4 1019.5 - 0.0 - Partly cloudy 10 - - - -
10/04:00am 18.4 ENE 5 6 1019.1 - 0.0 - Cloudy 10 - - - -
10/03:30am 18.5 ENE 4 6 1018.8 - 0.0 - Cloudy 10 - - - -
10/03:00am 18.6 E 5 5 1018.6 R 0.0 - Cloudy 10 - - - -
10/02:30am 18.6 ENE 5 7 1018.6 - 0.0 - Partly cloudy 10 - - - -
10/02:00am 18.7 E 6 8 1018.6 - 0.0 - Partly cloudy 10 - - - -
10/01:30am 18.9 ESE 6 7 1018.7 - 0.0 - Partly cloudy 10 - - - -
10/01:00am 19.1 ESE 7 10 1018.7 - 0.0 - Partly cloudy 10 - - - -
10/12:30am 19.4 ESE 9 14 1018.6 - 0.0 - Partly cloudy 10 - - - -
10/12:00am 19.4 ESE 7 9 1018.5 R 0.0 - Cloudy 10 - - - -
 
Date/Time
EDT
Temp
°C
Wind Pressure Rain since
9am
mm
Weather Cloud Vis
km
Sea
Height
m
Swell
Dir  Spd
kts
Gust
kts
hPa Trend Height
m
Period
s
Dir
09/11:30pm 19.2 ESE 7 9 1018.3 - 0.0 - Partly cloudy 10 - - - -
09/11:00pm 19.6 SE 9 13 1018.0 - 0.0 - Partly cloudy 10 - - - -
09/10:30pm 20.1 SE 11 15 1017.7 - 0.0 - Partly cloudy 10 - - - -
09/10:00pm 19.9 ESE 9 11 1017.1 - 0.0 - Partly cloudy 10 - - - -
09/09:30pm 19.5 SE 9 10 1016.7 - 0.0 - Partly cloudy 10 - - - -
09/09:00pm 19.4 SE 8 11 1016.2 R 0.0 - Mostly clear 10 - - - -
09/08:30pm 19.7 SE 7 9 1015.7 - 0.0 - Partly cloudy 10 - - - -
09/08:00pm 20.1 ESE 9 13 1014.8 - 0.0 - - 10 - - - -
09/07:30pm 20.5 ESE 11 15 1014.1 - 0.0 - - 10 - - - -
09/07:00pm 21.5 ESE 14 18 1013.4 - 0.0 - - 10 - - - -
09/06:30pm 22.6 SE 15 19 1012.3 - 0.0 - - 10 - - - -
09/06:00pm 24.0 SE 13 16 1011.3 R 0.0 - - 10 - - - -
09/05:30pm 23.9 SE 11 16 1010.8 - 0.0 - - 10 - - - -
09/05:00pm 23.8 SE 12 15 1010.3 - 0.0 - - 10 - - - -
09/04:30pm 24.6 SE 13 18 1010.1 - 0.0 - - 10 - - - -
09/04:00pm 24.8 SSE 14 18 1010.1 - 0.0 - - 10 - - - -
09/03:30pm 24.8 SE 14 19 1009.9 - 0.0 - - 10 - - - -
09/03:00pm 24.9 SSE 9 16 1009.8 R 0.0 - - 10 - - - -
09/02:30pm 26.1 SW 8 14 1009.6 - 0.0 - Partly cloudy 10 - - - -
09/02:00pm 25.4 W 10 20 1009.7 - 0.0 - Partly cloudy 10 - - - -
09/01:30pm 26.1 WSW 10 20 1009.7 - 0.0 - Partly cloudy 10 - - - -
09/01:00pm 25.7 W 13 22 1009.9 - 0.0 - - 10 - - - -
09/12:31pm 25.3 WSW 16 26 1009.7 - 0.0 - - 10 - - - -
09/12:30pm 25.3 WSW 16 21 1009.8 - 0.0 - - 10 - - - -
09/12:02pm 25.0 W 17 27 1009.8 - 0.0 - - 10 - - - -
09/12:00pm 25.0 WNW 17 27 1009.8 R 0.0 - - 10 - - - -
09/11:30am 23.9 WNW 16 24 1009.7 - 0.0 - - 10 - - - -
09/11:00am 24.2 W 16 23 1009.7 - 0.0 - - 10 - - - -
09/10:30am 23.3 WNW 16 26 1009.4 - 0.0 - Partly cloudy 10 - - - -
09/10:27am 22.9 WNW 15 26 1009.3 - 0.0 - Partly cloudy 10 - - - -
09/10:00am 22.4 WSW 17 22 1009.3 - 0.0 - - 10 - - - -
09/09:30am 22.3 WSW 18 24 1009.3 - 0.0 - - 10 - - - -
09/09:03am 22.2 WSW 16 26 1009.0 - 0.0 - - 10 - - - -
09/09:00am 22.0 WSW 17 26 1009.0 R 2.0 - - 10 - - - -
09/08:56am 21.5 WSW 17 26 1009.0 - 2.0 - - 10 - - - -
09/08:30am 21.4 W 16 23 1008.8 - 2.0 - Partly cloudy 10 - - - -
09/08:00am 20.8 W 16 21 1008.4 - 2.0 - Partly cloudy 10 - - - -
09/07:30am 20.3 W 11 18 1008.2 - 2.0 - Partly cloudy 10 - - - -
09/07:00am 19.9 W 13 19 1007.6 - 2.0 - - 10 - - - -
09/06:30am 19.0 W 14 18 1007.0 - 2.0 - - 10 - - - -
09/06:00am 19.7 W 14 20 1006.2 R 2.0 - - 10 - - - -
09/05:30am 20.8 W 15 22 1005.2 - 2.0 - Partly cloudy 10 - - - -
09/05:00am 21.8 W 15 19 1004.2 - 2.0 - Partly cloudy 10 - - - -
09/04:30am 22.8 W 15 25 1002.8 - 2.0 - Cloudy 10 - - - -
09/04:00am 24.0 W 13 18 1002.0 - 2.0 - Partly cloudy 10 - - - -
09/03:30am 24.6 W 14 18 1001.4 - 2.0 - Partly cloudy 10 - - - -
09/03:00am 24.7 W 15 23 1000.7 R 2.0 - Cloudy 10 - - - -
09/02:30am 25.3 WNW 18 29 1000.3 - 2.0 - - 10 - - - -
09/02:28am 25.4 WNW 17 29 1000.2 - 2.0 - - 10 - - - -
09/02:00am 25.1 WNW 12 17 1000.3 - 2.0 - Partly cloudy 10 - - - -
09/01:30am 24.1 NNW 6 9 1000.2 - 2.0 - Partly cloudy 10 - - - -
09/01:00am 23.9 NW 6 9 999.6 - 2.0 - - 10 - - - -
09/12:30am 24.1 WSW 5 7 999.7 - 2.0 - Partly cloudy 10 - - - -
09/12:00am 24.4 WSW 5 7 1000.1 R 2.0 - Partly cloudy 10 - - - -
 
Date/Time
EDT
Temp
°C
Wind Pressure Rain since
9am
mm
Weather Cloud Vis
km
Sea
Height
m
Swell
Dir  Spd
kts
Gust
kts
hPa Trend Height
m
Period
s
Dir
08/11:30pm 26.7 W 11 20 999.5 - 2.0 - Partly cloudy 10 - - - -
08/11:00pm 26.1 NW 8 9 999.0 - 2.0 - Partly cloudy 10 - - - -
08/10:30pm 26.2 N 7 8 997.8 - 2.0 - - 10 - - - -
08/10:17pm 26.3 N 6 8 997.6 - 2.0 - - 10 - - - -
08/10:00pm 26.6 N 7 10 997.5 - 2.0 - - 10 - - - -
08/09:30pm 27.1 NNE 11 14 997.6 - 2.0 - - 10 - - - -
08/09:00pm 27.2 NNE 7 10 997.7 F 2.0 - - 10 - - - -
08/08:30pm 27.7 NE 6 7 997.7 - 2.0 - - 10 - - - -
08/08:00pm 28.5 NNE 7 10 997.5 - 2.0 - - 10 - - - -
08/07:30pm 29.5 NNE 9 15 997.4 - 2.0 - - 10 - - - -
08/07:00pm 29.8 NNE 10 14 997.8 - 2.0 - - 10 - - - -
08/06:30pm 30.0 NNE 11 17 997.7 - 2.0 - - 10 - - - -
08/06:00pm 29.7 NE 13 19 997.7 F 2.0 Rain - 10 - - - -
08/05:30pm 28.9 NE 11 16 997.9 - 1.8 - Partly cloudy 10 - - - -

Other Formats:

Comma delimited format used in spreadsheet applications
http://www.bom.gov.au/fwo/IDN60701/IDN60701.94776.axf

JavaScript Object Notation format (JSON) in row-major order
http://www.bom.gov.au/fwo/IDN60701/IDN60701.94776.json